sensor_id;sensor_type;location;lat;lon;timestamp;pressure;altitude;pressure_sealevel;temperature;humidity
34237;BME280;20501;45.956;13.632;2022-08-19T00:00:32;99879.50;;;20.81;82.34
34237;BME280;20501;45.956;13.632;2022-08-19T00:02:57;99889.50;;;20.94;81.31
34237;BME280;20501;45.956;13.632;2022-08-19T00:05:23;99912.41;;;21.07;79.10
34237;BME280;20501;45.956;13.632;2022-08-19T00:07:49;99953.34;;;21.33;79.37
34237;BME280;20501;45.956;13.632;2022-08-19T00:10:15;99983.97;;;20.86;81.50
34237;BME280;20501;45.956;13.632;2022-08-19T00:12:41;99982.63;;;21.21;77.04
34237;BME280;20501;45.956;13.632;2022-08-19T00:15:09;99973.78;;;21.19;79.26
34237;BME280;20501;45.956;13.632;2022-08-19T00:17:42;99971.34;;;21.29;79.71
34237;BME280;20501;45.956;13.632;2022-08-19T00:20:10;99961.41;;;21.10;79.90
34237;BME280;20501;45.956;13.632;2022-08-19T00:22:37;99954.22;;;21.09;78.89
34237;BME280;20501;45.956;13.632;2022-08-19T00:25:05;99955.09;;;21.28;77.71
34237;BME280;20501;45.956;13.632;2022-08-19T00:27:30;99952.56;;;21.26;77.47
34237;BME280;20501;45.956;13.632;2022-08-19T00:29:56;99981.44;;;21.36;77.77
34237;BME280;20501;45.956;13.632;2022-08-19T00:32:21;99979.38;;;21.31;76.46
34237;BME280;20501;45.956;13.632;2022-08-19T00:34:47;99974.50;;;21.33;76.14
34237;BME280;20501;45.956;13.632;2022-08-19T00:37:12;99971.97;;;21.06;79.90
34237;BME280;20501;45.956;13.632;2022-08-19T00:39:38;99980.09;;;21.19;79.87
34237;BME280;20501;45.956;13.632;2022-08-19T00:42:03;99983.34;;;21.35;78.77
34237;BME280;20501;45.956;13.632;2022-08-19T00:44:29;99966.47;;;21.06;79.91
34237;BME280;20501;45.956;13.632;2022-08-19T00:46:57;99964.59;;;21.07;80.88
34237;BME280;20501;45.956;13.632;2022-08-19T00:49:46;99954.84;;;21.11;80.68
34237;BME280;20501;45.956;13.632;2022-08-19T00:52:19;99970.81;;;21.39;80.24
34237;BME280;20501;45.956;13.632;2022-08-19T00:54:46;99989.97;;;20.77;83.25
34237;BME280;20501;45.956;13.632;2022-08-19T00:57:15;100009.47;;;21.44;78.40
34237;BME280;20501;45.956;13.632;2022-08-19T00:59:44;100039.72;;;20.87;83.21
34237;BME280;20501;45.956;13.632;2022-08-19T01:02:13;100076.50;;;20.72;84.15
34237;BME280;20501;45.956;13.632;2022-08-19T01:04:39;100092.50;;;20.89;83.17
34237;BME280;20501;45.956;13.632;2022-08-19T01:07:04;100103.41;;;20.57;83.47
34237;BME280;20501;45.956;13.632;2022-08-19T01:09:30;100101.72;;;20.56;86.00
34237;BME280;20501;45.956;13.632;2022-08-19T01:11:56;100084.03;;;20.45;84.72
34237;BME280;20501;45.956;13.632;2022-08-19T01:14:22;100060.06;;;20.66;82.98
34237;BME280;20501;45.956;13.632;2022-08-19T01:16:48;100039.53;;;20.82;81.67
34237;BME280;20501;45.956;13.632;2022-08-19T01:19:26;100064.09;;;21.02;82.13
34237;BME280;20501;45.956;13.632;2022-08-19T01:22:01;100086.47;;;21.06;82.63
34237;BME280;20501;45.956;13.632;2022-08-19T01:24:28;100065.88;;;21.22;81.17
34237;BME280;20501;45.956;13.632;2022-08-19T01:26:53;100051.41;;;20.69;83.07
34237;BME280;20501;45.956;13.632;2022-08-19T01:29:19;100065.50;;;20.34;84.43
34237;BME280;20501;45.956;13.632;2022-08-19T01:31:45;100059.09;;;20.47;83.64
34237;BME280;20501;45.956;13.632;2022-08-19T01:34:10;100075.47;;;20.67;81.95
34237;BME280;20501;45.956;13.632;2022-08-19T01:36:43;100092.69;;;21.19;80.06
34237;BME280;20501;45.956;13.632;2022-08-19T01:39:12;100104.25;;;20.51;83.92
34237;BME280;20501;45.956;13.632;2022-08-19T01:41:38;100147.91;;;20.59;84.30
34237;BME280;20501;45.956;13.632;2022-08-19T01:44:06;100202.34;;;20.62;84.51
34237;BME280;20501;45.956;13.632;2022-08-19T01:46:32;100262.09;;;20.53;84.58
34237;BME280;20501;45.956;13.632;2022-08-19T01:48:58;100349.91;;;20.53;84.65
34237;BME280;20501;45.956;13.632;2022-08-19T01:51:25;100418.28;;;20.35;85.99
34237;BME280;20501;45.956;13.632;2022-08-19T01:53:51;100455.22;;;20.39;85.59
34237;BME280;20501;45.956;13.632;2022-08-19T01:56:18;100477.16;;;20.39;86.32
34237;BME280;20501;45.956;13.632;2022-08-19T01:58:51;100493.19;;;20.42;86.20
34237;BME280;20501;45.956;13.632;2022-08-19T02:01:36;100479.75;;;20.61;84.60
34237;BME280;20501;45.956;13.632;2022-08-19T02:04:02;100457.94;;;20.25;87.21
34237;BME280;20501;45.956;13.632;2022-08-19T02:06:28;100446.81;;;20.61;83.61
34237;BME280;20501;45.956;13.632;2022-08-19T02:08:54;100430.34;;;20.47;86.38
34237;BME280;20501;45.956;13.632;2022-08-19T02:11:27;100360.88;;;20.26;87.76
34237;BME280;20501;45.956;13.632;2022-08-19T02:13:54;100323.53;;;20.12;87.36
34237;BME280;20501;45.956;13.632;2022-08-19T02:16:20;100314.47;;;20.05;88.25
34237;BME280;20501;45.956;13.632;2022-08-19T02:18:46;100325.22;;;20.13;87.94
34237;BME280;20501;45.956;13.632;2022-08-19T02:21:17;100309.59;;;20.34;86.80
34237;BME280;20501;45.956;13.632;2022-08-19T02:23:43;100300.63;;;21.12;80.80
34237;BME280;20501;45.956;13.632;2022-08-19T02:26:09;100311.06;;;20.50;86.58
34237;BME280;20501;45.956;13.632;2022-08-19T02:28:35;100308.97;;;20.38;85.48
34237;BME280;20501;45.956;13.632;2022-08-19T02:31:02;100319.31;;;20.36;86.42
34237;BME280;20501;45.956;13.632;2022-08-19T02:33:28;100355.00;;;20.30;87.84
34237;BME280;20501;45.956;13.632;2022-08-19T02:35:53;100373.94;;;20.11;89.12
34237;BME280;20501;45.956;13.632;2022-08-19T02:38:19;100359.19;;;20.25;88.77
34237;BME280;20501;45.956;13.632;2022-08-19T02:40:55;100305.81;;;20.08;88.27
34237;BME280;20501;45.956;13.632;2022-08-19T02:43:22;100234.00;;;20.71;83.67
34237;BME280;20501;45.956;13.632;2022-08-19T02:45:49;100148.03;;;20.25;86.63
34237;BME280;20501;45.956;13.632;2022-08-19T02:48:22;100085.19;;;20.17;86.16
34237;BME280;20501;45.956;13.632;2022-08-19T02:50:50;100138.97;;;20.18;86.30
34237;BME280;20501;45.956;13.632;2022-08-19T02:53:22;100226.31;;;20.08;86.33
34237;BME280;20501;45.956;13.632;2022-08-19T02:55:49;100238.75;;;20.10;87.24
34237;BME280;20501;45.956;13.632;2022-08-19T02:58:15;100236.59;;;20.26;86.03
34237;BME280;20501;45.956;13.632;2022-08-19T03:00:46;100215.19;;;20.68;83.40
34237;BME280;20501;45.956;13.632;2022-08-19T03:03:12;100207.47;;;20.38;86.05
34237;BME280;20501;45.956;13.632;2022-08-19T03:05:38;100201.81;;;20.26;86.09
34237;BME280;20501;45.956;13.632;2022-08-19T03:08:04;100189.47;;;20.63;82.92
34237;BME280;20501;45.956;13.632;2022-08-19T03:10:31;100163.69;;;20.70;82.70
34237;BME280;20501;45.956;13.632;2022-08-19T03:12:57;100146.78;;;20.87;81.52
34237;BME280;20501;45.956;13.632;2022-08-19T03:15:22;100144.63;;;20.30;83.99
34237;BME280;20501;45.956;13.632;2022-08-19T03:17:48;100146.19;;;20.78;82.57
34237;BME280;20501;45.956;13.632;2022-08-19T03:20:13;100155.84;;;20.22;84.11
34237;BME280;20501;45.956;13.632;2022-08-19T03:22:38;100152.06;;;20.03;85.16
34237;BME280;20501;45.956;13.632;2022-08-19T03:25:04;100154.81;;;19.89;86.07
34237;BME280;20501;45.956;13.632;2022-08-19T03:27:29;100153.75;;;20.04;85.64
34237;BME280;20501;45.956;13.632;2022-08-19T03:29:55;100171.34;;;20.62;82.48
34237;BME280;20501;45.956;13.632;2022-08-19T03:32:21;100168.69;;;20.28;83.71
34237;BME280;20501;45.956;13.632;2022-08-19T03:34:47;100161.75;;;19.85;86.88
34237;BME280;20501;45.956;13.632;2022-08-19T03:37:13;100169.41;;;20.69;82.41
34237;BME280;20501;45.956;13.632;2022-08-19T03:39:40;100166.44;;;20.77;79.71
34237;BME280;20501;45.956;13.632;2022-08-19T03:42:08;100146.66;;;20.62;81.09
34237;BME280;20501;45.956;13.632;2022-08-19T03:44:33;100144.22;;;20.33;80.05
34237;BME280;20501;45.956;13.632;2022-08-19T03:46:59;100151.44;;;19.87;84.07
34237;BME280;20501;45.956;13.632;2022-08-19T03:49:27;100173.34;;;20.07;83.66
34237;BME280;20501;45.956;13.632;2022-08-19T03:51:54;100161.38;;;20.74;80.53
34237;BME280;20501;45.956;13.632;2022-08-19T03:54:21;100157.28;;;20.31;80.71
34237;BME280;20501;45.956;13.632;2022-08-19T03:56:52;100166.00;;;20.73;80.57
34237;BME280;20501;45.956;13.632;2022-08-19T03:59:25;100188.19;;;20.79;79.75
34237;BME280;20501;45.956;13.632;2022-08-19T04:01:53;100176.34;;;20.71;81.28
34237;BME280;20501;45.956;13.632;2022-08-19T04:04:19;100170.34;;;20.36;83.27
34237;BME280;20501;45.956;13.632;2022-08-19T04:06:44;100177.31;;;21.04;78.61
34237;BME280;20501;45.956;13.632;2022-08-19T04:09:12;100204.31;;;21.07;78.64
34237;BME280;20501;45.956;13.632;2022-08-19T04:11:40;100207.53;;;21.04;78.81
34237;BME280;20501;45.956;13.632;2022-08-19T04:14:07;100215.31;;;20.28;82.11
34237;BME280;20501;45.956;13.632;2022-08-19T04:16:33;100201.59;;;20.35;81.62
34237;BME280;20501;45.956;13.632;2022-08-19T04:19:00;100195.47;;;19.72;85.23
34237;BME280;20501;45.956;13.632;2022-08-19T04:21:27;100154.97;;;20.21;82.79
34237;BME280;20501;45.956;13.632;2022-08-19T04:23:54;100125.47;;;20.17;83.39
34237;BME280;20501;45.956;13.632;2022-08-19T04:26:26;100136.25;;;19.91;85.62
34237;BME280;20501;45.956;13.632;2022-08-19T04:28:52;100164.22;;;20.47;81.46
34237;BME280;20501;45.956;13.632;2022-08-19T04:31:21;100179.00;;;20.33;84.50
34237;BME280;20501;45.956;13.632;2022-08-19T04:33:55;100175.91;;;19.89;86.25
34237;BME280;20501;45.956;13.632;2022-08-19T04:36:26;100182.41;;;19.74;85.66
34237;BME280;20501;45.956;13.632;2022-08-19T04:38:57;100210.88;;;19.73;85.35
34237;BME280;20501;45.956;13.632;2022-08-19T04:41:24;100212.97;;;19.64;84.94
34237;BME280;20501;45.956;13.632;2022-08-19T04:44:09;100221.47;;;19.97;83.42
34237;BME280;20501;45.956;13.632;2022-08-19T04:46:35;100204.16;;;20.09;81.33
34237;BME280;20501;45.956;13.632;2022-08-19T04:49:04;100196.53;;;19.85;82.38
34237;BME280;20501;45.956;13.632;2022-08-19T04:51:31;100184.75;;;20.11;80.26
34237;BME280;20501;45.956;13.632;2022-08-19T04:53:56;100184.31;;;20.01;82.97
34237;BME280;20501;45.956;13.632;2022-08-19T04:56:23;100184.31;;;19.74;81.11
34237;BME280;20501;45.956;13.632;2022-08-19T04:58:52;100177.78;;;19.61;83.71
34237;BME280;20501;45.956;13.632;2022-08-19T05:01:28;100129.72;;;19.72;84.42
34237;BME280;20501;45.956;13.632;2022-08-19T05:03:55;100059.59;;;20.30;81.88
34237;BME280;20501;45.956;13.632;2022-08-19T05:06:22;100017.50;;;20.56;80.42
34237;BME280;20501;45.956;13.632;2022-08-19T05:08:49;99997.22;;;20.57;79.21
34237;BME280;20501;45.956;13.632;2022-08-19T05:11:17;99976.06;;;20.26;76.24
34237;BME280;20501;45.956;13.632;2022-08-19T05:13:44;99934.34;;;19.72;77.11
34237;BME280;20501;45.956;13.632;2022-08-19T05:16:11;99897.31;;;19.49;77.66
34237;BME280;20501;45.956;13.632;2022-08-19T05:18:37;99875.34;;;19.62;76.28
34237;BME280;20501;45.956;13.632;2022-08-19T05:21:22;99874.06;;;19.65;78.40
34237;BME280;20501;45.956;13.632;2022-08-19T05:24:07;99859.31;;;19.66;76.25
34237;BME280;20501;45.956;13.632;2022-08-19T05:26:40;99854.75;;;19.53;76.07
34237;BME280;20501;45.956;13.632;2022-08-19T05:29:07;99861.63;;;19.69;75.59
34237;BME280;20501;45.956;13.632;2022-08-19T05:31:33;99863.81;;;19.99;75.31
34237;BME280;20501;45.956;13.632;2022-08-19T05:33:59;99847.38;;;20.31;75.59
34237;BME280;20501;45.956;13.632;2022-08-19T05:36:32;99857.63;;;20.10;73.61
34237;BME280;20501;45.956;13.632;2022-08-19T05:38:59;99885.72;;;20.06;74.94
34237;BME280;20501;45.956;13.632;2022-08-19T05:41:25;99879.28;;;19.87;74.13
34237;BME280;20501;45.956;13.632;2022-08-19T05:43:55;99852.25;;;19.90;74.01
34237;BME280;20501;45.956;13.632;2022-08-19T05:46:21;99874.78;;;19.99;73.04
34237;BME280;20501;45.956;13.632;2022-08-19T05:48:47;99897.25;;;20.15;72.90
34237;BME280;20501;45.956;13.632;2022-08-19T05:51:13;99901.34;;;19.99;72.20
34237;BME280;20501;45.956;13.632;2022-08-19T05:53:39;99886.91;;;20.17;73.55
34237;BME280;20501;45.956;13.632;2022-08-19T05:56:11;99882.97;;;20.06;73.43
34237;BME280;20501;45.956;13.632;2022-08-19T05:58:38;99886.75;;;20.44;71.71
34237;BME280;20501;45.956;13.632;2022-08-19T06:01:09;99891.38;;;20.68;72.92
34237;BME280;20501;45.956;13.632;2022-08-19T06:03:35;99891.50;;;20.55;72.66
34237;BME280;20501;45.956;13.632;2022-08-19T06:06:03;99889.59;;;20.55;72.46
34237;BME280;20501;45.956;13.632;2022-08-19T06:08:28;99897.72;;;20.44;70.65
34237;BME280;20501;45.956;13.632;2022-08-19T06:10:54;99906.56;;;20.78;72.02
34237;BME280;20501;45.956;13.632;2022-08-19T06:13:20;99908.59;;;20.57;72.61
34237;BME280;20501;45.956;13.632;2022-08-19T06:15:46;99913.13;;;20.70;69.54
34237;BME280;20501;45.956;13.632;2022-08-19T06:18:13;99930.47;;;20.64;70.63
34237;BME280;20501;45.956;13.632;2022-08-19T06:20:39;99923.22;;;20.76;71.98
34237;BME280;20501;45.956;13.632;2022-08-19T06:23:05;99891.28;;;20.56;69.29
34237;BME280;20501;45.956;13.632;2022-08-19T06:25:30;99871.84;;;20.58;70.04
34237;BME280;20501;45.956;13.632;2022-08-19T06:27:56;99868.97;;;20.78;71.69
34237;BME280;20501;45.956;13.632;2022-08-19T06:30:21;99852.84;;;20.31;72.06
34237;BME280;20501;45.956;13.632;2022-08-19T06:32:47;99840.25;;;20.49;71.82
34237;BME280;20501;45.956;13.632;2022-08-19T06:35:12;99829.50;;;20.72;69.79
34237;BME280;20501;45.956;13.632;2022-08-19T06:37:39;99825.88;;;20.79;69.98
34237;BME280;20501;45.956;13.632;2022-08-19T06:40:05;99852.44;;;20.60;72.67
34237;BME280;20501;45.956;13.632;2022-08-19T06:42:30;99850.03;;;20.45;73.54
34237;BME280;20501;45.956;13.632;2022-08-19T06:44:56;99846.28;;;20.39;73.63
34237;BME280;20501;45.956;13.632;2022-08-19T06:47:23;99845.34;;;20.45;73.52
34237;BME280;20501;45.956;13.632;2022-08-19T06:49:48;99847.03;;;20.71;73.20
34237;BME280;20501;45.956;13.632;2022-08-19T06:52:14;99840.38;;;20.61;75.01
34237;BME280;20501;45.956;13.632;2022-08-19T06:54:41;99845.22;;;21.09;72.74
34237;BME280;20501;45.956;13.632;2022-08-19T06:57:08;99835.00;;;20.47;73.90
34237;BME280;20501;45.956;13.632;2022-08-19T06:59:38;99830.91;;;20.56;73.72
34237;BME280;20501;45.956;13.632;2022-08-19T07:02:05;99849.50;;;20.54;75.25
34237;BME280;20501;45.956;13.632;2022-08-19T07:04:32;99848.00;;;20.33;75.73
34237;BME280;20501;45.956;13.632;2022-08-19T07:07:10;99850.91;;;20.38;73.83
34237;BME280;20501;45.956;13.632;2022-08-19T07:09:39;99835.66;;;20.68;76.17
34237;BME280;20501;45.956;13.632;2022-08-19T07:12:06;99845.06;;;20.28;77.31
34237;BME280;20501;45.956;13.632;2022-08-19T07:14:33;99848.97;;;20.46;77.72
34237;BME280;20501;45.956;13.632;2022-08-19T07:17:07;99846.88;;;20.66;75.92
34237;BME280;20501;45.956;13.632;2022-08-19T07:19:34;99828.47;;;20.48;77.01
34237;BME280;20501;45.956;13.632;2022-08-19T07:22:02;99831.78;;;20.57;77.81
34237;BME280;20501;45.956;13.632;2022-08-19T07:24:28;99824.38;;;20.83;75.39
34237;BME280;20501;45.956;13.632;2022-08-19T07:26:55;99824.75;;;20.86;74.34
34237;BME280;20501;45.956;13.632;2022-08-19T07:29:23;99817.69;;;20.97;75.01
34237;BME280;20501;45.956;13.632;2022-08-19T07:31:52;99826.59;;;20.93;73.96
34237;BME280;20501;45.956;13.632;2022-08-19T07:34:22;99814.78;;;20.92;74.45
34237;BME280;20501;45.956;13.632;2022-08-19T07:36:49;99825.25;;;21.02;75.26
34237;BME280;20501;45.956;13.632;2022-08-19T07:39:18;99829.44;;;21.05;74.57
34237;BME280;20501;45.956;13.632;2022-08-19T07:41:45;99832.28;;;21.16;74.09
34237;BME280;20501;45.956;13.632;2022-08-19T07:44:11;99839.13;;;21.26;72.86
34237;BME280;20501;45.956;13.632;2022-08-19T07:46:41;99821.91;;;21.37;72.56
34237;BME280;20501;45.956;13.632;2022-08-19T07:49:07;99822.25;;;21.59;73.43
34237;BME280;20501;45.956;13.632;2022-08-19T07:51:43;99837.44;;;21.62;73.44
34237;BME280;20501;45.956;13.632;2022-08-19T07:54:08;99838.28;;;21.62;72.75
34237;BME280;20501;45.956;13.632;2022-08-19T07:56:34;99839.75;;;21.65;70.90
34237;BME280;20501;45.956;13.632;2022-08-19T07:58:59;99834.16;;;21.72;71.46
34237;BME280;20501;45.956;13.632;2022-08-19T08:01:26;99841.09;;;21.56;72.71
34237;BME280;20501;45.956;13.632;2022-08-19T08:03:53;99844.63;;;21.63;73.28
34237;BME280;20501;45.956;13.632;2022-08-19T08:06:38;99844.63;;;21.63;73.15
34237;BME280;20501;45.956;13.632;2022-08-19T08:09:26;99840.25;;;21.74;71.55
34237;BME280;20501;45.956;13.632;2022-08-19T08:12:01;99846.03;;;21.84;71.81
34237;BME280;20501;45.956;13.632;2022-08-19T08:14:32;99844.50;;;21.88;73.94
34237;BME280;20501;45.956;13.632;2022-08-19T08:16:59;99858.63;;;21.92;74.18
34237;BME280;20501;45.956;13.632;2022-08-19T08:19:27;99867.63;;;21.99;72.23
34237;BME280;20501;45.956;13.632;2022-08-19T08:21:55;99866.03;;;21.91;72.54
34237;BME280;20501;45.956;13.632;2022-08-19T08:24:21;99868.41;;;21.88;73.46
34237;BME280;20501;45.956;13.632;2022-08-19T08:26:46;99862.44;;;21.91;72.21
34237;BME280;20501;45.956;13.632;2022-08-19T08:29:13;99870.09;;;21.89;73.10
34237;BME280;20501;45.956;13.632;2022-08-19T08:31:39;99856.78;;;21.86;74.45
34237;BME280;20501;45.956;13.632;2022-08-19T08:34:06;99870.25;;;21.75;73.93
34237;BME280;20501;45.956;13.632;2022-08-19T08:36:31;99867.50;;;21.75;73.57
34237;BME280;20501;45.956;13.632;2022-08-19T08:38:59;99891.59;;;21.61;77.88
34237;BME280;20501;45.956;13.632;2022-08-19T08:44:27;99875.53;;;21.40;77.84
34237;BME280;20501;45.956;13.632;2022-08-19T08:47:03;99872.06;;;20.56;83.57
34237;BME280;20501;45.956;13.632;2022-08-19T08:49:34;99880.41;;;21.19;78.45
34237;BME280;20501;45.956;13.632;2022-08-19T08:52:07;99894.63;;;20.91;79.77
34237;BME280;20501;45.956;13.632;2022-08-19T08:54:46;99927.38;;;20.85;83.21
34237;BME280;20501;45.956;13.632;2022-08-19T08:57:29;99922.56;;;20.81;82.35
34237;BME280;20501;45.956;13.632;2022-08-19T09:00:02;99937.72;;;21.34;77.57
34237;BME280;20501;45.956;13.632;2022-08-19T09:02:30;99942.16;;;21.54;76.82
34237;BME280;20501;45.956;13.632;2022-08-19T09:04:55;99930.41;;;20.77;85.46
34237;BME280;20501;45.956;13.632;2022-08-19T09:15:35;99935.19;;;20.56;82.12
34237;BME280;20501;45.956;13.632;2022-08-19T09:18:02;99944.50;;;20.49;84.31
34237;BME280;20501;45.956;13.632;2022-08-19T09:20:29;99933.88;;;20.27;85.45
34237;BME280;20501;45.956;13.632;2022-08-19T09:22:56;99927.66;;;20.77;82.32
34237;BME280;20501;45.956;13.632;2022-08-19T09:25:22;99936.91;;;20.51;82.84
34237;BME280;20501;45.956;13.632;2022-08-19T09:27:49;99934.78;;;20.85;82.57
34237;BME280;20501;45.956;13.632;2022-08-19T09:30:21;99953.28;;;20.64;85.11
34237;BME280;20501;45.956;13.632;2022-08-19T09:32:48;99952.19;;;20.72;84.23
34237;BME280;20501;45.956;13.632;2022-08-19T09:35:14;99929.06;;;20.54;83.57
34237;BME280;20501;45.956;13.632;2022-08-19T09:37:41;99912.69;;;20.41;82.80
34237;BME280;20501;45.956;13.632;2022-08-19T09:40:08;99903.09;;;20.25;84.98
34237;BME280;20501;45.956;13.632;2022-08-19T09:42:33;99897.59;;;20.25;83.39
34237;BME280;20501;45.956;13.632;2022-08-19T09:44:59;99913.31;;;20.43;84.06
34237;BME280;20501;45.956;13.632;2022-08-19T09:47:24;99905.09;;;20.68;81.71
34237;BME280;20501;45.956;13.632;2022-08-19T09:49:50;99909.31;;;20.46;83.93
34237;BME280;20501;45.956;13.632;2022-08-19T09:52:15;99903.53;;;20.54;83.85
34237;BME280;20501;45.956;13.632;2022-08-19T09:54:41;99910.38;;;20.70;80.91
34237;BME280;20501;45.956;13.632;2022-08-19T09:57:07;99906.47;;;20.84;81.79
34237;BME280;20501;45.956;13.632;2022-08-19T09:59:33;99899.38;;;21.02;79.45
34237;BME280;20501;45.956;13.632;2022-08-19T10:01:58;99890.88;;;20.85;80.48
34237;BME280;20501;45.956;13.632;2022-08-19T10:04:23;99882.56;;;20.92;82.16
34237;BME280;20501;45.956;13.632;2022-08-19T10:07:09;99879.66;;;20.86;84.09
34237;BME280;20501;45.956;13.632;2022-08-19T10:09:34;99874.03;;;21.00;81.28
34237;BME280;20501;45.956;13.632;2022-08-19T10:12:01;99870.63;;;21.05;81.02
34237;BME280;20501;45.956;13.632;2022-08-19T10:14:26;99864.63;;;21.14;79.76
34237;BME280;20501;45.956;13.632;2022-08-19T10:16:52;99872.53;;;21.23;81.31
34237;BME280;20501;45.956;13.632;2022-08-19T10:19:18;99871.09;;;21.39;80.70
34237;BME280;20501;45.956;13.632;2022-08-19T10:21:45;99865.81;;;21.56;79.62
34237;BME280;20501;45.956;13.632;2022-08-19T10:24:10;99860.75;;;21.59;79.57
34237;BME280;20501;45.956;13.632;2022-08-19T10:29:03;99868.19;;;21.33;81.96
34237;BME280;20501;45.956;13.632;2022-08-19T10:31:32;99867.81;;;21.30;82.74
34237;BME280;20501;45.956;13.632;2022-08-19T10:33:59;99871.69;;;21.22;81.21
34237;BME280;20501;45.956;13.632;2022-08-19T10:36:31;99872.34;;;21.43;84.03
34237;BME280;20501;45.956;13.632;2022-08-19T10:38:59;99881.09;;;21.52;85.58
34237;BME280;20501;45.956;13.632;2022-08-19T10:41:32;99879.66;;;21.49;81.95
34237;BME280;20501;45.956;13.632;2022-08-19T10:44:01;99875.28;;;21.41;88.71
34237;BME280;20501;45.956;13.632;2022-08-19T10:46:27;99852.25;;;21.42;84.42
34237;BME280;20501;45.956;13.632;2022-08-19T10:48:58;99854.53;;;21.45;81.68
34237;BME280;20501;45.956;13.632;2022-08-19T10:51:24;99851.63;;;21.40;85.78
34237;BME280;20501;45.956;13.632;2022-08-19T10:54:08;99844.00;;;21.42;81.05
34237;BME280;20501;45.956;13.632;2022-08-19T10:56:34;99844.38;;;21.46;85.28
34237;BME280;20501;45.956;13.632;2022-08-19T10:59:23;99851.94;;;21.50;84.81
34237;BME280;20501;45.956;13.632;2022-08-19T11:01:50;99856.50;;;21.38;84.54
34237;BME280;20501;45.956;13.632;2022-08-19T11:04:17;99866.91;;;21.36;87.67
34237;BME280;20501;45.956;13.632;2022-08-19T11:06:44;99866.66;;;21.56;88.37
34237;BME280;20501;45.956;13.632;2022-08-19T11:09:19;99855.16;;;21.66;86.62
34237;BME280;20501;45.956;13.632;2022-08-19T11:11:45;99857.59;;;21.74;83.31
34237;BME280;20501;45.956;13.632;2022-08-19T11:14:17;99855.25;;;21.59;87.45
34237;BME280;20501;45.956;13.632;2022-08-19T11:16:48;99859.81;;;21.65;87.94
34237;BME280;20501;45.956;13.632;2022-08-19T11:19:14;99871.31;;;21.74;84.03
34237;BME280;20501;45.956;13.632;2022-08-19T11:21:43;99904.47;;;21.61;89.46
34237;BME280;20501;45.956;13.632;2022-08-19T11:24:14;99936.72;;;21.47;88.79
34237;BME280;20501;45.956;13.632;2022-08-19T11:26:41;99996.16;;;21.41;87.54
34237;BME280;20501;45.956;13.632;2022-08-19T11:29:09;100046.72;;;21.08;90.97
34237;BME280;20501;45.956;13.632;2022-08-19T11:31:40;99994.75;;;20.04;92.33
34237;BME280;20501;45.956;13.632;2022-08-19T11:34:08;99945.63;;;20.02;92.27
34237;BME280;20501;45.956;13.632;2022-08-19T11:36:37;99972.06;;;20.29;92.12
34237;BME280;20501;45.956;13.632;2022-08-19T11:39:05;99964.00;;;20.34;92.19
34237;BME280;20501;45.956;13.632;2022-08-19T11:41:31;99962.66;;;20.50;92.15
34237;BME280;20501;45.956;13.632;2022-08-19T11:43:56;99957.38;;;20.87;90.63
34237;BME280;20501;45.956;13.632;2022-08-19T11:46:24;99974.47;;;21.14;90.77
34237;BME280;20501;45.956;13.632;2022-08-19T11:48:50;99970.50;;;21.29;90.28
34237;BME280;20501;45.956;13.632;2022-08-19T11:51:21;99978.31;;;21.50;91.96
34237;BME280;20501;45.956;13.632;2022-08-19T11:53:47;99987.78;;;21.80;91.09
34237;BME280;20501;45.956;13.632;2022-08-19T11:56:14;99997.00;;;22.04;92.29
34237;BME280;20501;45.956;13.632;2022-08-19T11:58:40;100000.06;;;21.96;90.52
34237;BME280;20501;45.956;13.632;2022-08-19T12:01:07;100003.97;;;22.07;89.91
34237;BME280;20501;45.956;13.632;2022-08-19T12:03:33;100018.59;;;22.19;85.26
34237;BME280;20501;45.956;13.632;2022-08-19T12:06:04;100021.13;;;22.21;85.49
34237;BME280;20501;45.956;13.632;2022-08-19T12:08:29;100016.34;;;22.16;86.04
34237;BME280;20501;45.956;13.632;2022-08-19T12:10:55;100014.66;;;22.15;85.49
34237;BME280;20501;45.956;13.632;2022-08-19T12:13:20;100003.56;;;22.22;86.01
34237;BME280;20501;45.956;13.632;2022-08-19T12:15:47;100010.56;;;22.97;83.71
34237;BME280;20501;45.956;13.632;2022-08-19T12:18:13;100015.91;;;23.23;80.72
34237;BME280;20501;45.956;13.632;2022-08-19T12:20:41;100020.16;;;23.18;78.57
34237;BME280;20501;45.956;13.632;2022-08-19T12:23:08;100019.63;;;23.28;83.02
34237;BME280;20501;45.956;13.632;2022-08-19T12:25:35;100011.00;;;23.25;78.45
34237;BME280;20501;45.956;13.632;2022-08-19T12:28:02;100002.88;;;23.42;78.26
34237;BME280;20501;45.956;13.632;2022-08-19T12:30:28;99998.88;;;23.97;81.69
34237;BME280;20501;45.956;13.632;2022-08-19T12:32:53;99984.81;;;23.99;74.28
34237;BME280;20501;45.956;13.632;2022-08-19T12:35:19;99982.03;;;24.10;73.02
34237;BME280;20501;45.956;13.632;2022-08-19T12:37:48;99979.38;;;24.16;75.87
34237;BME280;20501;45.956;13.632;2022-08-19T12:40:15;99966.59;;;23.98;76.98
34237;BME280;20501;45.956;13.632;2022-08-19T12:42:40;99968.34;;;24.16;77.94
34237;BME280;20501;45.956;13.632;2022-08-19T12:45:09;99970.03;;;24.46;75.47
34237;BME280;20501;45.956;13.632;2022-08-19T12:47:35;99973.16;;;24.37;74.36
34237;BME280;20501;45.956;13.632;2022-08-19T12:50:01;99969.44;;;24.44;71.74
34237;BME280;20501;45.956;13.632;2022-08-19T12:52:27;99976.38;;;24.46;70.10
34237;BME280;20501;45.956;13.632;2022-08-19T12:54:56;99972.94;;;24.39;68.42
34237;BME280;20501;45.956;13.632;2022-08-19T12:57:24;99972.63;;;24.52;70.44
34237;BME280;20501;45.956;13.632;2022-08-19T12:59:52;99972.34;;;24.37;68.71
34237;BME280;20501;45.956;13.632;2022-08-19T13:02:18;99968.72;;;24.36;68.88